Time;durP1;ratioP1;P1;durP2;ratioP2;P2;SDS_P1;SDS_P2;PMS_P1;PMS_P2;Temp;Humidity;BMP_temperature;BMP_pressure;BME280_temperature;BME280_humidity;BME280_pressure;Samples;Min_cycle;Max_cycle;Signal;HPM_P1;HPM_P2
2023/04/29 00:02:13;;;;;;;5.75;5.05;;;11.40;99.90;12.10;93829.00;;;;7395983;19;20160;-73
2023/04/29 00:04:40;;;;;;;7.05;5.60;;;11.40;99.90;12.20;93846.00;;;;7397551;19;20184;-74
2023/04/29 00:07:14;;;;;;;7.03;6.32;;;11.40;99.90;12.20;93844.00;;;;7397504;19;20176;-74
2023/04/29 00:09:48;;;;;;;8.57;6.35;;;11.50;99.90;12.10;93815.00;;;;7396283;19;20124;-75
2023/04/29 00:12:15;;;;;;;6.68;5.82;;;11.40;99.90;12.10;93815.00;;;;7398221;19;20157;-74
2023/04/29 00:14:49;;;;;;;9.25;5.85;;;11.40;99.90;12.10;93800.00;;;;7398684;19;20151;-74
2023/04/29 00:17:24;;;;;;;7.47;5.60;;;11.40;99.90;12.10;93835.00;;;;7397838;19;20145;-74
2023/04/29 00:19:58;;;;;;;7.60;5.82;;;11.40;99.90;12.10;93806.00;;;;7397992;19;20142;-74
2023/04/29 00:22:38;;;;;;;9.55;6.93;;;11.30;99.90;12.10;93825.00;;;;7395564;19;20648;-74
2023/04/29 00:25:12;;;;;;;7.43;6.18;;;11.40;99.90;12.00;93832.00;;;;7396527;19;20190;-75
2023/04/29 00:27:46;;;;;;;8.20;6.38;;;11.30;99.90;12.20;93812.00;;;;7397186;19;20458;-74
2023/04/29 00:30:13;;;;;;;7.85;6.78;;;11.30;99.90;12.10;93819.00;;;;7396574;19;20608;-76
2023/04/29 00:32:47;;;;;;;10.05;6.63;;;11.30;99.90;12.00;93833.00;;;;7397456;19;20457;-78
2023/04/29 00:35:15;;;;;;;9.73;6.90;;;11.40;99.90;12.10;93835.00;;;;7395945;19;20196;-74
2023/04/29 00:37:49;;;;;;;11.00;7.35;;;11.40;99.90;12.00;93851.00;;;;7396767;19;20173;-75
2023/04/29 00:40:16;;;;;;;8.70;7.60;;;11.40;99.90;12.10;93829.00;;;;7396444;19;20144;-73
2023/04/29 00:42:50;;;;;;;9.52;7.00;;;11.40;99.90;12.00;93808.00;;;;7393901;19;20148;-75
2023/04/29 00:45:17;;;;;;;8.40;6.57;;;11.30;99.90;12.00;93833.00;;;;7395351;19;20592;-74
2023/04/29 00:47:51;;;;;;;9.05;7.00;;;11.30;99.90;12.10;93858.00;;;;7385211;19;20155;-75
2023/04/29 00:50:20;;;;;;;11.70;7.18;;;11.30;99.90;12.00;93844.00;;;;7393305;19;20124;-73
2023/04/29 00:52:54;;;;;;;10.05;7.30;;;11.30;99.90;12.00;93853.00;;;;7396957;19;20631;-74
2023/04/29 00:55:23;;;;;;;11.15;6.93;;;11.30;99.90;12.00;93848.00;;;;7391906;19;20129;-75
2023/04/29 00:57:58;;;;;;;10.38;6.85;;;11.30;99.90;12.00;93838.00;;;;7396085;19;20128;-73
2023/04/29 01:00:33;;;;;;;9.63;6.72;;;11.30;99.90;11.90;93852.00;;;;7403274;19;20144;-76
2023/04/29 01:03:08;;;;;;;8.80;6.20;;;11.30;99.90;12.00;93846.00;;;;7402764;19;20621;-76
2023/04/29 01:05:53;;;;;;;8.70;7.00;;;11.20;99.90;11.90;93852.00;;;;7401042;19;20152;-75
2023/04/29 01:08:43;;;;;;;7.10;6.40;;;11.20;99.90;12.00;93816.00;;;;7402767;19;20120;-75
2023/04/29 01:11:24;;;;;;;9.32;6.97;;;11.20;99.90;12.00;93841.00;;;;7402969;19;20508;-76
2023/04/29 01:14:01;;;;;;;9.80;7.57;;;11.30;99.90;12.10;93846.00;;;;7403367;19;20523;-75
2023/04/29 01:16:46;;;;;;;8.88;6.47;;;11.30;99.90;12.00;93826.00;;;;7398471;19;20172;-77
2023/04/29 01:19:53;;;;;;;8.50;7.25;;;11.30;99.90;11.90;93843.00;;;;7400593;19;20616;-74
2023/04/29 01:22:21;;;;;;;10.18;6.60;;;11.20;99.90;11.90;93846.00;;;;7402584;19;20160;-76
2023/04/29 01:24:55;;;;;;;13.35;8.15;;;11.20;95.60;11.90;93845.00;;;;7402982;19;20948;-76
2023/04/29 01:27:38;;;;;;;9.43;7.40;;;11.20;61.90;11.80;93818.00;;;;7402313;19;20512;-76
2023/04/29 01:31:07;;;;;;;8.77;7.45;;;11.10;5.50;11.70;93818.00;;;;7403835;19;20125;-76
2023/04/29 01:33:57;;;;;;;10.23;6.85;;;11.00;1.00;11.60;93814.00;;;;7400892;19;20148;-75
2023/04/29 01:36:45;;;;;;;7.72;6.90;;;10.90;1.00;11.50;93843.00;;;;7401622;19;20157;-76
2023/04/29 01:39:28;;;;;;;8.68;6.45;;;10.80;1.00;11.40;93839.00;;;;7401987;19;20454;-75
2023/04/29 01:42:21;;;;;;;12.27;7.68;;;10.70;1.00;11.50;93834.00;;;;7399758;19;20196;-76
2023/04/29 01:44:53;;;;;;;7.60;6.78;;;10.70;1.00;11.30;93813.00;;;;7400855;19;20257;-76
2023/04/29 01:47:28;;;;;;;8.38;7.20;;;10.60;1.00;11.30;93840.00;;;;7403215;19;20483;-76
2023/04/29 01:49:55;;;;;;;9.70;7.03;;;10.60;1.00;11.20;93811.00;;;;7401259;19;20148;-77
2023/04/29 01:52:29;;;;;;;10.80;6.72;;;10.60;1.00;11.20;93838.00;;;;7401457;19;20140;-76
2023/04/29 01:54:56;;;;;;;8.32;6.13;;;10.50;1.00;11.10;93806.00;;;;7398210;19;20558;-77
2023/04/29 01:57:30;;;;;;;9.77;6.70;;;10.40;1.00;11.00;93821.00;;;;7401368;19;20148;-76
2023/04/29 01:59:57;;;;;;;8.60;6.53;;;10.30;1.00;11.00;93835.00;;;;7401430;19;20169;-76
2023/04/29 02:02:31;;;;;;;7.82;6.22;;;10.30;1.00;11.00;93816.00;;;;7398135;19;20232;-76
2023/04/29 02:04:59;;;;;;;8.68;5.47;;;10.30;1.00;10.90;93834.00;;;;7401609;19;20181;-75
2023/04/29 02:07:32;;;;;;;9.15;6.13;;;10.20;1.00;10.90;93791.00;;;;7402513;19;20603;-77
2023/04/29 02:10:07;;;;;;;7.38;5.97;;;10.10;1.00;10.90;93829.00;;;;7400465;19;20128;-77
2023/04/29 02:12:40;;;;;;;8.27;5.70;;;10.10;1.00;10.80;93784.00;;;;7402665;19;20631;-77
2023/04/29 02:15:27;;;;;;;7.50;5.60;;;10.10;1.00;10.60;93832.00;;;;7398788;19;20116;-76
2023/04/29 02:18:01;;;;;;;7.53;5.82;;;10.00;1.00;10.60;93796.00;;;;7401579;19;20125;-75
2023/04/29 02:20:35;;;;;;;7.47;5.60;;;10.00;1.00;10.70;93794.00;;;;7402164;19;20129;-75
2023/04/29 02:23:02;;;;;;;7.63;5.10;;;9.90;1.00;10.60;93815.00;;;;7398313;19;20136;-75
2023/04/29 02:25:37;;;;;;;7.43;4.72;;;9.90;1.00;10.50;93810.00;;;;7400115;19;20128;-76
2023/04/29 02:28:04;;;;;;;5.07;4.57;;;9.80;1.00;10.60;93816.00;;;;7401272;19;20471;-77
2023/04/29 02:30:37;;;;;;;5.73;4.40;;;9.80;1.00;10.50;93810.00;;;;7400749;19;20642;-76
2023/04/29 02:33:12;;;;;;;4.95;3.95;;;9.70;1.00;10.40;93795.00;;;;7400838;19;20160;-75
2023/04/29 02:35:46;;;;;;;8.45;3.75;;;9.70;1.00;10.40;93824.00;;;;7401764;19;20144;-77
2023/04/29 02:38:13;;;;;;;5.72;4.10;;;9.60;99.90;10.30;93803.00;;;;7398655;19;20129;-76
2023/04/29 02:40:47;;;;;;;7.65;4.00;;;9.50;99.90;10.20;93784.00;;;;7400033;19;20152;-77
2023/04/29 02:43:22;;;;;;;6.90;3.78;;;9.40;99.90;10.30;93819.00;;;;7398025;19;20604;-75
2023/04/29 02:45:56;;;;;;;5.10;3.90;;;9.40;99.90;10.20;93806.00;;;;7400539;19;20125;-76
2023/04/29 02:48:23;;;;;;;4.57;4.07;;;9.40;99.90;10.30;93829.00;;;;7399698;19;20200;-76
2023/04/29 02:50:56;;;;;;;7.85;4.63;;;9.40;99.90;10.30;93812.00;;;;7400537;19;20121;-77
2023/04/29 02:53:29;;;;;;;5.23;4.10;;;9.50;99.90;10.20;93829.00;;;;7399005;19;20132;-76
2023/04/29 02:55:56;;;;;;;6.22;4.68;;;9.50;99.90;10.10;93784.00;;;;7399093;19;20135;-76
2023/04/29 02:58:30;;;;;;;5.88;4.07;;;9.30;99.90;10.00;93799.00;;;;7399134;19;20136;-76
2023/04/29 03:01:04;;;;;;;5.00;3.97;;;9.30;99.90;10.10;93833.00;;;;7394876;19;20668;-76
2023/04/29 03:03:38;;;;;;;8.38;4.60;;;9.30;99.90;10.10;93789.00;;;;7398868;19;20137;-74
2023/04/29 03:06:06;;;;;;;6.80;4.30;;;9.30;99.90;10.20;93798.00;;;;7398242;19;20152;-76
2023/04/29 03:08:34;;;;;;;5.35;4.55;;;9.30;99.90;10.00;93803.00;;;;7399452;19;20137;-77
2023/04/29 03:11:08;;;;;;;6.25;3.90;;;9.30;99.90;10.10;93786.00;;;;7398321;19;20148;-74
2023/04/29 03:13:42;;;;;;;5.17;4.67;;;9.30;99.90;10.10;93817.00;;;;7399642;19;20137;-75
2023/04/29 03:16:15;;;;;;;7.13;4.97;;;9.30;99.90;9.90;93811.00;;;;7398071;19;20557;-74
2023/04/29 03:18:49;;;;;;;5.30;4.68;;;9.20;99.90;10.00;93807.00;;;;7400211;19;20131;-76
2023/04/29 03:21:25;;;;;;;7.90;5.00;;;9.30;99.90;10.00;93784.00;;;;7398892;19;20149;-76
2023/04/29 03:23:58;;;;;;;5.55;4.68;;;9.20;99.90;9.90;93814.00;;;;7395142;19;20129;-74
2023/04/29 03:26:25;;;;;;;6.93;4.43;;;9.20;99.90;9.80;93792.00;;;;7398000;19;20577;-77
2023/04/29 03:28:59;;;;;;;5.22;4.57;;;9.20;99.90;9.80;93795.00;;;;7397951;19;20625;-75
2023/04/29 03:31:26;;;;;;;6.30;4.68;;;9.10;99.90;9.70;93815.00;;;;7399061;19;20149;-77
2023/04/29 03:34:00;;;;;;;5.15;4.55;;;9.00;99.90;9.70;93797.00;;;;7398404;19;20121;-76
2023/04/29 03:36:27;;;;;;;10.05;4.97;;;9.00;99.90;9.60;93805.00;;;;7398176;19;20146;-75
2023/04/29 03:39:01;;;;;;;8.35;4.75;;;9.00;99.90;9.60;93820.00;;;;7399008;19;20162;-75
2023/04/29 03:41:35;;;;;;;5.95;4.32;;;8.90;99.90;9.60;93800.00;;;;7399206;19;20164;-77
2023/04/29 03:44:09;;;;;;;5.50;4.65;;;8.90;1.00;9.50;93772.00;;;;7397744;19;20125;-77
2023/04/29 03:46:43;;;;;;;4.28;3.88;;;8.80;1.00;9.50;93803.00;;;;7396861;19;20129;-76
2023/04/29 03:49:17;;;;;;;7.47;4.40;;;8.80;1.00;9.40;93776.00;;;;7395070;19;20507;-77
2023/04/29 03:51:51;;;;;;;5.97;4.60;;;8.80;1.00;9.40;93801.00;;;;7399021;19;20128;-78
2023/04/29 03:54:18;;;;;;;5.13;4.60;;;8.70;1.00;9.30;93798.00;;;;7399428;19;20560;-77
2023/04/29 03:56:52;;;;;;;7.30;5.07;;;8.70;1.00;9.30;93818.00;;;;7396166;19;20161;-77
2023/04/29 03:59:22;;;;;;;6.27;5.50;;;8.60;1.00;9.30;93811.00;;;;7391498;19;20639;-77
2023/04/29 04:01:49;;;;;;;6.30;5.70;;;8.70;1.00;9.30;93811.00;;;;7397905;19;20592;-76
2023/04/29 04:04:24;;;;;;;9.48;5.75;;;8.60;1.00;9.40;93822.00;;;;7398625;19;20149;-76
2023/04/29 04:06:51;;;;;;;10.07;5.77;;;8.70;1.00;9.30;93811.00;;;;7396785;19;20636;-76
2023/04/29 04:09:25;;;;;;;10.83;6.60;;;8.60;1.00;9.30;93821.00;;;;7398079;19;20130;-75
2023/04/29 04:11:52;;;;;;;9.90;6.93;;;8.70;1.00;9.40;93811.00;;;;7397312;19;20133;-75
2023/04/29 04:14:26;;;;;;;7.67;6.80;;;8.70;1.00;9.30;93821.00;;;;7397560;19;20600;-76
2023/04/29 04:17:00;;;;;;;8.60;7.20;;;8.70;1.00;9.00;93834.00;;;;7393715;19;20156;-76
2023/04/29 04:19:33;;;;;;;10.20;8.47;;;8.50;1.00;9.30;93786.00;;;;7395349;19;20158;-76
2023/04/29 04:22:07;;;;;;;11.27;9.13;;;8.60;1.00;9.30;93812.00;;;;7394340;19;20620;-76
2023/04/29 04:24:35;;;;;;;10.90;9.48;;;8.60;1.00;9.30;93801.00;;;;7394378;19;20129;-76
2023/04/29 04:27:10;;;;;;;9.33;8.43;;;8.60;1.00;9.30;93807.00;;;;7395231;19;20159;-74
2023/04/29 04:29:37;;;;;;;10.67;8.37;;;8.70;1.00;9.20;93836.00;;;;7393045;19;20153;-76
2023/04/29 04:32:04;;;;;;;10.10;8.20;;;8.70;1.00;9.40;93829.00;;;;7394682;19;20645;-76
2023/04/29 04:34:38;;;;;;;9.30;8.30;;;8.70;1.00;9.30;93814.00;;;;7399472;19;20147;-75
2023/04/29 04:37:05;;;;;;;8.33;7.47;;;8.70;1.00;9.40;93840.00;;;;7400715;19;20148;-75
2023/04/29 04:39:39;;;;;;;8.33;7.53;;;8.70;1.00;9.50;93846.00;;;;7402062;19;20121;-77
2023/04/29 04:42:06;;;;;;;9.17;7.60;;;8.70;1.00;9.50;93831.00;;;;7400304;19;20169;-75
2023/04/29 04:44:40;;;;;;;8.90;7.53;;;8.60;1.00;9.50;93823.00;;;;7401272;19;20116;-75
2023/04/29 04:47:14;;;;;;;10.77;8.57;;;8.60;1.00;9.70;93857.00;;;;7399261;19;20612;-74
2023/04/29 04:49:51;;;;;;;8.90;8.00;;;8.80;1.00;9.80;93819.00;;;;7398213;19;20588;-75
2023/04/29 04:52:25;;;;;;;8.93;8.02;;;8.90;1.00;10.00;93855.00;;;;7401369;19;20140;-76
2023/04/29 04:54:59;;;;;;;8.52;7.63;;;9.10;2.00;10.00;93861.00;;;;7398374;19;20195;-75
2023/04/29 04:57:26;;;;;;;13.40;6.88;;;9.10;10.60;10.00;93861.00;;;;7398794;19;20141;-77
2023/04/29 05:00:01;;;;;;;9.68;6.82;;;9.10;1.00;9.90;93832.00;;;;7395993;19;20493;-76
2023/04/29 05:02:28;;;;;;;8.40;6.85;;;9.10;1.00;9.80;93875.00;;;;7394813;19;20173;-75
2023/04/29 05:05:03;;;;;;;7.32;6.20;;;9.10;1.00;9.80;93855.00;;;;7400493;19;20152;-74
2023/04/29 05:07:31;;;;;;;6.22;5.60;;;9.10;1.00;9.90;93844.00;;;;7401069;19;20142;-76
2023/04/29 05:09:59;;;;;;;7.23;6.17;;;9.10;1.00;10.10;93868.00;;;;7399605;19;20468;-75
2023/04/29 05:12:34;;;;;;;6.20;5.50;;;9.10;1.00;10.10;93870.00;;;;7397695;19;20166;-76
2023/04/29 05:15:08;;;;;;;6.00;5.40;;;9.10;1.00;10.10;93873.00;;;;7399776;19;20162;-76
2023/04/29 05:17:54;;;;;;;7.28;5.40;;;9.10;1.00;10.40;93875.00;;;;6903208;19;9713982;-75
2023/04/29 05:20:28;;;;;;;5.85;5.25;;;9.20;1.00;10.70;93837.00;;;;7403855;19;20188;-74
2023/04/29 05:23:02;;;;;;;9.30;5.85;;;9.40;1.00;10.60;93864.00;;;;7401041;19;20132;-73
2023/04/29 05:25:30;;;;;;;6.10;4.90;;;9.50;99.90;10.40;93861.00;;;;7403259;19;20133;-75
2023/04/29 05:28:03;;;;;;;5.35;4.85;;;9.50;99.90;10.30;93873.00;;;;7401697;19;20208;-75
2023/04/29 05:30:37;;;;;;;5.03;4.53;;;9.60;1.00;10.40;93859.00;;;;7402812;19;20511;-75
2023/04/29 05:33:05;;;;;;;5.28;4.70;;;9.60;1.00;10.20;93863.00;;;;7401349;19;20486;-76
2023/04/29 05:35:38;;;;;;;4.70;3.90;;;9.50;99.90;10.00;93887.00;;;;7404038;19;20121;-75
2023/04/29 05:38:05;;;;;;;4.28;3.88;;;9.50;99.90;9.90;93893.00;;;;7402273;19;20545;-76
2023/04/29 05:40:39;;;;;;;5.53;3.60;;;9.50;99.90;10.50;93877.00;;;;7404051;19;20132;-75
2023/04/29 05:43:06;;;;;;;4.18;3.60;;;9.50;61.90;10.40;93890.00;;;;7395058;19;20239;-80
2023/04/29 05:45:40;;;;;;;3.42;3.10;;;9.70;1.00;10.40;93871.00;;;;7398851;19;20149;-81
2023/04/29 05:48:07;;;;;;;4.60;3.47;;;9.70;1.00;10.30;93878.00;;;;7400237;19;20473;-76
2023/04/29 05:50:41;;;;;;;3.78;3.35;;;9.70;1.00;10.20;93886.00;;;;7400047;19;20145;-75
2023/04/29 05:53:15;;;;;;;2.97;2.78;;;9.80;1.00;10.40;93891.00;;;;7402278;19;20129;-76
2023/04/29 05:55:49;;;;;;;3.10;2.78;;;9.80;99.90;10.40;93915.00;;;;7394299;19;21153;-74
2023/04/29 05:58:17;;;;;;;3.17;2.88;;;9.80;99.90;10.30;93910.00;;;;7387053;19;20793;-75
2023/04/29 06:00:51;;;;;;;4.00;3.28;;;9.80;99.90;10.40;93916.00;;;;7379275;19;20179;-74
2023/04/29 06:03:19;;;;;;;3.78;3.35;;;9.90;99.90;10.20;93912.00;;;;7383413;19;20145;-74
2023/04/29 06:05:53;;;;;;;4.40;3.42;;;10.10;99.90;10.90;93897.00;;;;7383064;19;20154;-75
2023/04/29 06:08:48;;;;;;;6.78;3.60;;;10.10;99.90;10.90;93887.00;;;;7374527;19;20156;-75
2023/04/29 06:11:18;;;;;;;6.13;3.70;;;10.30;99.90;11.20;93905.00;;;;7374327;19;20150;-79
2023/04/29 06:13:54;;;;;;;4.45;3.72;;;10.40;99.90;11.40;93920.00;;;;7370312;19;20147;-74
2023/04/29 06:16:28;;;;;;;4.10;3.60;;;10.60;1.00;11.40;93916.00;;;;7371437;19;20179;-74
2023/04/29 06:19:01;;;;;;;3.75;3.25;;;10.80;1.00;11.60;93935.00;;;;7373709;19;20136;-74
2023/04/29 06:21:30;;;;;;;4.38;3.83;;;10.80;1.00;11.50;93941.00;;;;7370533;19;20143;-75
2023/04/29 06:24:04;;;;;;;4.80;3.85;;;10.90;1.00;11.30;93931.00;;;;7373068;19;20128;-75
2023/04/29 06:26:32;;;;;;;4.50;3.55;;;11.00;99.90;11.30;93948.00;;;;7366904;19;20137;-74
2023/04/29 06:29:05;;;;;;;3.55;3.25;;;11.00;99.90;11.10;93927.00;;;;7367059;19;20148;-74
2023/04/29 06:31:34;;;;;;;3.90;3.50;;;11.00;99.90;11.40;93951.00;;;;7366157;19;20196;-75
2023/04/29 06:34:01;;;;;;;5.65;3.15;;;11.10;99.90;11.20;93958.00;;;;7369826;19;20533;-75
2023/04/29 06:36:35;;;;;;;6.47;3.35;;;11.10;1.00;11.80;93961.00;;;;7372075;19;20620;-75
2023/04/29 06:39:02;;;;;;;4.72;3.20;;;11.10;1.00;11.80;93951.00;;;;7369653;19;20612;-75
2023/04/29 06:41:37;;;;;;;3.83;3.20;;;11.20;1.00;12.80;93953.00;;;;7371115;19;20120;-76
2023/04/29 06:44:12;;;;;;;4.07;2.95;;;11.40;1.00;12.30;93938.00;;;;7368974;19;20152;-74
2023/04/29 06:46:47;;;;;;;3.33;2.88;;;11.40;99.90;12.30;93966.00;;;;7373270;19;20483;-73
2023/04/29 06:49:15;;;;;;;3.33;3.03;;;11.40;99.90;12.30;93981.00;;;;7372172;19;20129;-74
2023/04/29 06:51:49;;;;;;;3.72;3.00;;;11.20;99.90;11.50;93963.00;;;;7372036;19;20616;-74
2023/04/29 06:54:22;;;;;;;2.67;2.47;;;11.20;50.00;11.40;93985.00;;;;7363474;19;20129;-75
2023/04/29 06:56:57;;;;;;;3.63;3.33;;;11.20;50.20;11.10;93982.00;;;;7369957;19;20139;-74
2023/04/29 06:59:24;;;;;;;4.10;3.10;;;11.30;1.00;11.10;93993.00;;;;7372560;19;20133;-74
2023/04/29 07:01:58;;;;;;;3.17;2.85;;;11.20;1.00;11.10;93995.00;;;;7373278;19;20182;-77
2023/04/29 07:04:26;;;;;;;2.85;2.60;;;11.00;50.20;11.10;93959.00;;;;7370018;19;20129;-74
2023/04/29 07:07:01;;;;;;;4.30;2.75;;;11.00;16.10;11.00;93978.00;;;;7370805;19;20465;-73
2023/04/29 07:09:30;;;;;;;3.75;2.72;;;10.90;1.00;11.50;93945.00;;;;7373238;19;20137;-75
2023/04/29 07:12:05;;;;;;;4.68;2.88;;;10.80;99.90;11.40;93986.00;;;;7370306;19;20181;-75
2023/04/29 07:14:32;;;;;;;4.95;2.70;;;10.80;99.90;11.90;93981.00;;;;7371036;19;20121;-76
2023/04/29 07:17:13;;;;;;;3.35;2.88;;;11.00;1.00;11.60;94000.00;;;;7371970;19;20188;-76
2023/04/29 07:19:53;;;;;;;2.75;2.38;;;11.20;1.00;11.90;93983.00;;;;7371184;19;20656;-74
2023/04/29 07:22:29;;;;;;;4.10;2.42;;;11.40;1.00;11.40;93998.00;;;;7368805;19;20140;-74
2023/04/29 07:24:56;;;;;;;2.15;1.95;;;11.50;99.90;11.40;94005.00;;;;7368411;19;20149;-76
2023/04/29 07:27:29;;;;;;;2.03;1.83;;;11.60;99.90;12.10;94003.00;;;;7367208;19;20162;-76
2023/04/29 07:30:02;;;;;;;2.20;2.00;;;11.50;1.00;12.10;93993.00;;;;7359030;19;20136;-74
2023/04/29 07:32:37;;;;;;;2.20;2.00;;;11.70;99.90;13.10;94004.00;;;;7365218;19;20144;-75
2023/04/29 07:35:05;;;;;;;2.85;1.83;;;12.10;99.90;13.70;93981.00;;;;7366475;19;20159;-74
2023/04/29 07:37:40;;;;;;;2.28;1.70;;;12.20;99.90;13.60;93987.00;;;;7366063;19;20156;-76
2023/04/29 07:40:14;;;;;;;1.85;1.50;;;12.40;1.00;14.80;93965.00;;;;7359440;19;20135;-74
2023/04/29 07:42:50;;;;;;;1.88;1.63;;;12.80;1.00;16.10;93961.00;;;;7367869;19;20655;-74
2023/04/29 07:45:23;;;;;;;2.03;1.48;;;13.20;1.00;15.30;93988.00;;;;7364722;19;22061;-75
2023/04/29 07:47:58;;;;;;;1.55;1.45;;;13.90;99.90;15.00;94007.00;;;;7366335;19;20164;-75
2023/04/29 07:50:26;;;;;;;1.42;1.33;;;13.70;99.90;13.90;93997.00;;;;7364111;19;21022;-74
2023/04/29 07:53:01;;;;;;;1.50;1.33;;;13.50;99.90;13.00;94014.00;;;;7366915;19;20134;-74
2023/04/29 07:55:29;;;;;;;2.15;1.40;;;13.30;99.90;13.00;93982.00;;;;7363616;19;20216;-75
2023/04/29 07:58:03;;;;;;;4.68;1.90;;;12.70;99.90;14.50;93977.00;;;;7367738;19;20777;-75
2023/04/29 08:00:31;;;;;;;1.65;1.45;;;12.90;1.00;15.60;94009.00;;;;7363504;19;20298;-75
2023/04/29 08:03:05;;;;;;;1.45;1.30;;;13.30;99.90;14.40;93988.00;;;;7364573;19;20148;-75
2023/04/29 08:05:41;;;;;;;1.60;1.50;;;13.50;99.90;14.20;94004.00;;;;7361902;19;20194;-75
2023/04/29 08:08:15;;;;;;;1.25;1.15;;;13.20;99.90;13.20;94037.00;;;;7364409;19;20178;-76
2023/04/29 08:10:48;;;;;;;3.55;1.23;;;12.80;99.90;12.70;94025.00;;;;7364125;19;20639;-73
2023/04/29 08:13:16;;;;;;;3.67;1.40;;;12.70;99.90;12.90;93999.00;;;;7365572;19;20139;-75
2023/04/29 08:15:43;;;;;;;2.40;1.27;;;12.40;99.90;12.40;94012.00;;;;7364650;19;20129;-75
2023/04/29 08:18:26;;;;;;;2.92;1.70;;;12.40;99.90;13.40;94029.00;;;;7360655;19;20187;-77
2023/04/29 08:21:02;;;;;;;2.20;2.00;;;12.80;99.90;14.00;94031.00;;;;7364585;19;20175;-75
2023/04/29 08:23:39;;;;;;;3.22;1.90;;;13.30;99.90;13.10;94019.00;;;;7363606;19;20136;-76
2023/04/29 08:26:09;;;;;;;3.10;2.00;;;13.20;99.90;12.80;94007.00;;;;7363504;19;20157;-75
2023/04/29 08:28:47;;;;;;;1.85;1.70;;;13.10;99.90;12.70;94037.00;;;;7362571;19;20128;-75
2023/04/29 08:31:19;;;;;;;2.85;1.60;;;13.10;99.90;12.10;94016.00;;;;7364653;19;20158;-77
2023/04/29 08:33:57;;;;;;;3.30;1.75;;;13.00;99.90;12.30;94022.00;;;;7362414;19;20552;-75
2023/04/29 08:36:27;;;;;;;1.85;1.70;;;12.80;99.90;12.70;94018.00;;;;7360826;19;20607;-73
2023/04/29 08:39:01;;;;;;;2.38;2.17;;;12.80;99.90;13.50;94026.00;;;;7364964;19;20152;-74
2023/04/29 08:41:36;;;;;;;2.28;2.05;;;12.60;99.90;13.00;94034.00;;;;7364549;19;20171;-74
2023/04/29 08:44:12;;;;;;;4.63;2.20;;;12.60;99.90;12.30;94017.00;;;;7359582;19;20457;-73
2023/04/29 08:46:48;;;;;;;2.05;1.95;;;12.60;99.90;11.90;94039.00;;;;7365159;19;20140;-74
2023/04/29 08:49:22;;;;;;;2.55;2.35;;;12.60;99.90;12.40;94043.00;;;;7361777;19;20141;-74
2023/04/29 08:51:52;;;;;;;4.38;2.40;;;12.60;99.90;12.50;94041.00;;;;7363805;19;20129;-74
2023/04/29 08:54:29;;;;;;;2.88;2.30;;;12.70;99.90;13.00;94030.00;;;;7355158;19;20155;-75
2023/04/29 08:57:05;;;;;;;2.63;2.15;;;12.60;99.90;12.80;94000.00;;;;7357227;19;21361;-74
2023/04/29 08:59:35;;;;;;;3.85;2.50;;;12.80;99.90;13.10;94058.00;;;;7359147;19;20528;-75
2023/04/29 09:02:15;;;;;;;2.60;2.40;;;12.70;99.90;13.20;94029.00;;;;7356125;19;20179;-75
2023/04/29 09:05:12;;;;;;;2.47;2.13;;;12.60;99.90;13.10;94059.00;;;;7354018;19;20147;-76
2023/04/29 09:07:49;;;;;;;2.30;2.10;;;12.50;99.90;13.10;94048.00;;;;7359605;19;20170;-75
2023/04/29 09:10:18;;;;;;;3.17;2.70;;;12.50;99.90;12.50;94028.00;;;;7357113;19;20160;-74
2023/04/29 09:12:57;;;;;;;2.70;2.50;;;12.30;99.90;12.70;94004.00;;;;7358220;19;20162;-75
2023/04/29 09:15:25;;;;;;;4.03;2.92;;;12.40;99.90;12.20;94031.00;;;;7357481;19;20165;-75
2023/04/29 09:18:06;;;;;;;4.38;2.50;;;12.60;99.90;12.80;94049.00;;;;7353343;19;20187;-75
2023/04/29 09:20:40;;;;;;;6.18;2.58;;;12.60;99.90;12.80;94041.00;;;;7361475;19;20153;-74
2023/04/29 09:23:08;;;;;;;4.18;2.63;;;12.50;99.90;12.30;94064.00;;;;7362287;19;20148;-74
2023/04/29 09:25:56;;;;;;;2.50;2.22;;;12.20;99.90;12.20;94073.00;;;;7364751;19;20631;-75
2023/04/29 09:28:32;;;;;;;3.30;2.90;;;12.20;99.90;11.90;94051.00;;;;7364251;19;20466;-75
2023/04/29 09:31:07;;;;;;;3.75;2.40;;;11.90;99.90;12.20;94027.00;;;;7365029;19;20151;-74
2023/04/29 09:34:10;;;;;;;5.97;2.60;;;11.90;99.90;12.90;94063.00;;;;7362202;19;20156;-73
2023/04/29 09:36:47;;;;;;;5.10;2.60;;;12.40;99.90;13.10;94059.00;;;;7363945;19;20156;-75
2023/04/29 09:39:22;;;;;;;3.22;2.78;;;12.80;99.90;13.30;94049.00;;;;7363980;19;20153;-74
2023/04/29 09:41:53;;;;;;;5.07;3.00;;;13.10;99.90;12.90;94071.00;;;;7363800;19;20193;-74
2023/04/29 09:44:34;;;;;;;5.20;2.80;;;13.20;63.00;13.30;94064.00;;;;7361366;19;20159;-74
2023/04/29 09:47:12;;;;;;;6.32;3.35;;;13.40;99.90;13.30;94073.00;;;;7364583;19;20163;-75
2023/04/29 09:49:44;;;;;;;6.00;3.20;;;13.20;88.50;13.30;94039.00;;;;7361203;19;20121;-74
2023/04/29 09:52:19;;;;;;;3.92;3.13;;;13.30;99.90;13.40;94053.00;;;;7368432;19;20129;-76
2023/04/29 09:55:05;;;;;;;4.10;3.30;;;13.50;1.00;13.70;94034.00;;;;7366627;19;20153;-76
2023/04/29 09:57:43;;;;;;;5.93;2.85;;;13.40;78.40;14.30;94027.00;;;;7366927;19;20632;-74
2023/04/29 10:00:16;;;;;;;3.15;2.80;;;13.60;21.00;14.10;94064.00;;;;7368152;19;20167;-74
2023/04/29 10:02:58;;;;;;;5.05;2.97;;;13.90;17.30;13.60;94026.00;;;;7364825;19;20145;-75
2023/04/29 10:05:29;;;;;;;5.20;2.70;;;13.80;1.00;13.90;94056.00;;;;7365225;19;20596;-73
2023/04/29 10:08:04;;;;;;;3.92;3.40;;;13.60;1.00;14.20;94064.00;;;;7369668;19;20169;-76
2023/04/29 10:10:39;;;;;;;4.13;3.25;;;14.00;1.00;14.40;94066.00;;;;7366656;19;20134;-76
2023/04/29 10:13:16;;;;;;;4.45;3.40;;;13.70;1.00;13.90;94076.00;;;;7364901;19;20125;-74
2023/04/29 10:16:09;;;;;;;6.18;2.97;;;13.30;5.90;12.70;94083.00;;;;7367694;19;20133;-74
2023/04/29 10:18:55;;;;;;;6.45;2.95;;;13.30;17.70;13.60;94061.00;;;;7368608;19;20636;-76
2023/04/29 10:21:30;;;;;;;3.58;3.28;;;13.40;28.30;13.20;94072.00;;;;7365589;19;20144;-75
2023/04/29 10:24:09;;;;;;;3.95;3.40;;;13.50;18.90;12.70;94091.00;;;;7368773;19;20636;-74
2023/04/29 10:26:46;;;;;;;3.50;3.20;;;13.40;17.20;13.20;94080.00;;;;7367206;19;20596;-76
2023/04/29 10:29:23;;;;;;;4.25;3.45;;;13.10;91.20;13.00;94066.00;;;;7367155;19;20140;-76
2023/04/29 10:31:53;;;;;;;4.38;3.97;;;13.10;89.80;12.30;94056.00;;;;7364880;19;20137;-73
2023/04/29 10:34:30;;;;;;;6.70;3.97;;;13.00;82.50;12.40;94037.00;;;;7360401;19;20197;-73
2023/04/29 10:37:10;;;;;;;6.50;4.40;;;12.90;99.90;12.80;94072.00;;;;7366547;19;20129;-75
2023/04/29 10:40:09;;;;;;;4.80;3.80;;;12.80;80.40;13.20;94072.00;;;;7369455;19;20136;-75
2023/04/29 10:42:51;;;;;;;4.05;3.65;;;13.10;91.50;12.50;94007.00;;;;7366017;19;20127;-76
2023/04/29 10:45:30;;;;;;;3.85;3.50;;;13.10;1.00;12.70;94048.00;;;;7367975;19;20160;-75
2023/04/29 10:48:13;;;;;;;4.47;3.70;;;12.80;37.10;12.80;94009.00;;;;7367324;19;20156;-74
2023/04/29 10:50:46;;;;;;;4.90;3.33;;;12.70;56.10;12.80;94073.00;;;;7367426;19;20124;-76
2023/04/29 10:53:20;;;;;;;3.75;3.38;;;12.60;50.90;12.40;94072.00;;;;7369177;19;20132;-75
2023/04/29 10:56:17;;;;;;;6.03;3.85;;;12.40;80.90;12.70;94085.00;;;;7365154;19;20144;-75
2023/04/29 10:58:50;;;;;;;4.95;3.95;;;12.50;69.60;12.50;94063.00;;;;7366639;19;20133;-75
2023/04/29 11:01:41;;;;;;;5.90;4.13;;;12.50;38.80;12.90;94049.00;;;;7359074;19;20158;-75
2023/04/29 11:04:16;;;;;;;6.47;4.13;;;12.20;99.90;12.90;94083.00;;;;7365500;19;20148;-76
2023/04/29 11:06:47;;;;;;;6.40;4.00;;;12.20;99.90;13.10;94072.00;;;;7363428;19;20129;-74
2023/04/29 11:09:23;;;;;;;3.85;3.33;;;12.20;99.90;12.80;94086.00;;;;7366477;19;20153;-75
2023/04/29 11:12:08;;;;;;;5.93;4.82;;;12.10;99.90;12.70;94082.00;;;;7365207;19;20148;-74
2023/04/29 11:14:40;;;;;;;4.47;3.90;;;11.90;99.90;12.40;94070.00;;;;7368159;19;20136;-76
2023/04/29 11:17:24;;;;;;;4.90;3.83;;;11.80;99.90;12.50;94072.00;;;;7365876;19;20204;-76
2023/04/29 11:20:12;;;;;;;5.15;3.80;;;12.20;99.90;13.30;94043.00;;;;7369257;19;20136;-74
2023/04/29 11:22:41;;;;;;;4.78;3.33;;;12.40;97.40;13.80;94047.00;;;;7362137;19;20527;-74
2023/04/29 11:25:17;;;;;;;4.70;3.42;;;12.50;89.10;13.40;94046.00;;;;7367592;19;20133;-75
2023/04/29 11:27:47;;;;;;;4.30;3.03;;;13.00;1.00;13.70;94013.00;;;;7365868;19;21265;-74
2023/04/29 11:30:17;;;;;;;4.18;3.20;;;13.30;1.00;15.10;94058.00;;;;7365660;19;20644;-75
2023/04/29 11:32:51;;;;;;;3.28;2.90;;;13.60;1.00;14.50;94049.00;;;;7361527;19;20152;-73